Time;durP1;ratioP1;P1;durP2;ratioP2;P2;SDS_P1;SDS_P2;PMS_P1;PMS_P2;Temp;Humidity;BMP_temperature;BMP_pressure;BME280_temperature;BME280_humidity;BME280_pressure;Samples;Min_cycle;Max_cycle;Signal;HPM_P1;HPM_P2
2021/06/02 00:00:35;;;;;;;5.35;1.10;;;;;;;15.84;38.37;100961.67;128449;1101;61975;-80
2021/06/02 00:03:30;;;;;;;2.23;1.13;;;;;;;15.84;38.53;100964.34;128518;1101;62042;-80
2021/06/02 00:06:15;;;;;;;;;;;;;;;15.82;38.95;100958.38;128439;1104;61959;-79
2021/06/02 00:08:43;;;;;;;2.13;1.10;;;;;;;15.79;38.74;100959.61;128633;1101;62064;-81
2021/06/02 00:11:12;;;;;;;3.57;1.20;;;;;;;15.76;39.61;100960.00;128623;1101;62100;-80
2021/06/02 00:13:39;;;;;;;1.83;1.03;;;;;;;15.73;39.83;100949.72;128381;1104;62685;-81
2021/06/02 00:16:06;;;;;;;2.77;1.00;;;;;;;15.69;39.53;100946.59;128606;1101;62365;-81
2021/06/02 00:18:34;;;;;;;1.67;1.07;;;;;;;15.66;39.78;100956.85;128385;1104;62069;-81
2021/06/02 00:21:01;;;;;;;2.40;1.43;;;;;;;15.63;40.33;100949.25;128555;1101;62057;-80
2021/06/02 00:23:30;;;;;;;4.50;1.60;;;;;;;15.58;40.47;100954.39;128347;1104;61533;-80
2021/06/02 00:25:57;;;;;;;2.63;1.60;;;;;;;15.54;40.80;100953.14;128575;1101;62491;-81
2021/06/02 00:28:24;;;;;;;2.00;1.10;;;;;;;15.48;41.30;100947.55;128551;1101;61995;-81
2021/06/02 00:30:51;;;;;;;2.17;1.10;;;;;;;15.44;41.41;100948.16;128638;1101;62006;-82
2021/06/02 00:33:19;;;;;;;1.87;1.03;;;;;;;15.39;41.39;100946.09;128384;1101;62220;-82
2021/06/02 00:35:46;;;;;;;4.27;1.47;;;;;;;15.34;41.67;100943.18;128600;1101;62032;-82
2021/06/02 00:38:14;;;;;;;3.10;1.60;;;;;;;15.30;41.81;100949.98;128389;1101;62642;-81
2021/06/02 00:40:48;;;;;;;5.60;1.30;;;;;;;15.26;41.60;100944.20;128379;1104;61990;-81
2021/06/02 00:43:18;;;;;;;2.68;1.25;;;;;;;15.24;41.50;100942.75;128571;1101;61907;-82
2021/06/02 00:45:47;;;;;;;3.17;1.30;;;;;;;15.22;41.82;100950.15;128526;1101;62275;-81
2021/06/02 00:48:16;;;;;;;3.20;1.30;;;;;;;15.20;41.83;100944.17;128402;1104;62306;-81
2021/06/02 00:50:46;;;;;;;2.47;1.17;;;;;;;15.16;41.63;100940.25;128560;1101;62784;-81
2021/06/02 00:53:14;;;;;;;2.30;1.30;;;;;;;15.15;42.55;100946.60;128612;1101;62273;-81
2021/06/02 00:55:42;;;;;;;3.20;1.20;;;;;;;15.13;42.24;100945.98;128425;1101;61976;-82
2021/06/02 00:58:13;;;;;;;3.00;1.40;;;;;;;15.10;42.54;100944.53;128370;1104;62326;-79
2021/06/02 01:00:40;;;;;;;2.30;1.20;;;;;;;15.06;42.66;100949.44;128336;1105;62234;-81
2021/06/02 01:03:10;;;;;;;3.43;1.40;;;;;;;15.04;42.89;100942.65;128550;1101;62015;-81
2021/06/02 01:05:38;;;;;;;4.43;1.43;;;;;;;15.00;43.08;100936.90;128549;1101;62011;-81
2021/06/02 01:08:07;;;;;;;3.20;1.53;;;;;;;14.96;43.26;100943.66;128634;1101;61873;-81
2021/06/02 01:10:36;;;;;;;3.57;1.63;;;;;;;14.93;43.98;100949.38;128421;1102;61972;-79
2021/06/02 01:13:07;;;;;;;2.60;1.13;;;;;;;14.88;44.10;100943.81;128534;1101;61989;-81
2021/06/02 01:15:35;;;;;;;3.13;1.37;;;;;;;14.82;44.88;100937.41;128348;1104;61994;-80
2021/06/02 01:18:03;;;;;;;2.70;1.23;;;;;;;14.75;45.05;100944.56;128368;1104;61802;-80
2021/06/02 01:20:32;;;;;;;2.20;1.17;;;;;;;14.70;45.52;100943.49;128414;1104;62135;-80
2021/06/02 01:22:59;;;;;;;4.77;1.40;;;;;;;14.61;46.07;100940.97;128559;1101;62455;-80
2021/06/02 01:25:28;;;;;;;4.50;1.50;;;;;;;14.55;46.52;100948.91;128356;1104;61975;-79
2021/06/02 01:27:54;;;;;;;2.70;1.40;;;;;;;14.45;47.47;100943.90;128397;1104;62855;-80
2021/06/02 01:30:23;;;;;;;2.37;1.10;;;;;;;14.36;47.63;100951.23;128335;1104;61985;-79
2021/06/02 01:32:56;;;;;;;1.83;1.10;;;;;;;14.30;47.91;100956.52;128580;1101;61972;-80
2021/06/02 01:35:23;;;;;;;2.20;1.50;;;;;;;14.21;48.21;100959.32;128541;1101;61989;-80
2021/06/02 01:38:09;;;;;;;4.70;1.57;;;;;;;14.15;48.07;100960.08;128631;1101;62033;-80
2021/06/02 01:41:12;;;;;;;2.47;1.60;;;;;;;14.08;48.70;100949.36;128364;1104;62673;-80
2021/06/02 01:43:50;;;;;;;2.13;1.40;;;;;;;14.00;49.50;100954.82;128394;1104;61940;-80
2021/06/02 01:46:32;;;;;;;1.97;1.20;;;;;;;13.92;49.57;100951.45;128587;1101;62347;-81
2021/06/02 01:49:40;;;;;;;3.43;1.48;;;;;;;13.86;49.92;100945.88;128573;1101;61913;-80
2021/06/02 01:52:54;;;;;;;2.97;1.37;;;;;;;13.78;50.10;100947.85;128609;1102;61988;-79
2021/06/02 01:55:43;;;;;;;3.53;1.60;;;;;;;13.71;50.39;100947.79;128551;1101;62944;-79
2021/06/02 01:58:41;;;;;;;2.40;1.50;;;;;;;13.65;50.86;100945.88;128547;1101;62128;-79
2021/06/02 02:01:33;;;;;;;3.20;1.60;;;;;;;13.58;51.53;100948.48;128379;1104;62039;-80
2021/06/02 02:04:13;;;;;;;2.17;1.13;;;;;;;13.47;51.97;100930.29;128366;1104;62429;-79
2021/06/02 02:07:11;;;;;;;3.07;1.37;;;;;;;13.50;52.56;100937.11;128627;1101;62058;-79
2021/06/02 02:10:09;;;;;;;3.33;1.53;;;;;;;13.46;52.91;100933.98;128388;1104;62801;-80
2021/06/02 02:12:49;;;;;;;4.37;1.93;;;;;;;13.43;53.02;100932.52;128395;1104;62411;-80
2021/06/02 02:15:55;;;;;;;4.23;1.60;;;;;;;13.40;53.78;100930.22;128606;1101;61989;-80
2021/06/02 02:18:43;;;;;;;2.30;1.17;;;;;;;13.37;54.59;100935.12;128004;1105;62567;-80
2021/06/02 02:21:12;;;;;;;3.43;1.40;;;;;;;13.34;54.68;100927.48;128429;1104;62130;-80
2021/06/02 02:23:47;;;;;;;3.60;1.50;;;;;;;13.31;55.22;100920.70;128386;1104;62329;-80
2021/06/02 02:26:35;;;;;;;2.50;1.50;;;;;;;13.30;55.60;100929.69;128347;1104;63200;-80
2021/06/02 02:29:37;;;;;;;4.40;1.73;;;;;;;13.29;56.05;100921.90;128439;1102;61964;-80
2021/06/02 02:32:35;;;;;;;2.73;1.40;;;;;;;13.26;56.56;100933.73;128127;1104;62843;-80
2021/06/02 02:35:20;;;;;;;2.80;1.90;;;;;;;13.25;56.73;100927.55;128409;1104;62093;-80
2021/06/02 02:38:29;;;;;;;2.73;1.60;;;;;;;13.24;57.40;100925.10;128598;1101;62918;-80
2021/06/02 02:41:18;;;;;;;3.30;1.57;;;;;;;13.24;57.77;100930.42;128427;1101;62170;-79
2021/06/02 02:44:05;;;;;;;3.47;1.77;;;;;;;13.25;58.28;100926.73;128564;1101;62085;-79
2021/06/02 02:46:45;;;;;;;3.93;1.60;;;;;;;13.24;58.62;100928.58;128409;1102;61817;-80
2021/06/02 02:49:43;;;;;;;3.37;1.53;;;;;;;13.25;59.32;100932.88;128557;1101;61424;-81
2021/06/02 02:52:19;;;;;;;2.90;1.90;;;;;;;13.26;59.38;100933.73;128572;1101;62148;-80
2021/06/02 02:54:54;;;;;;;2.70;1.70;;;;;;;13.25;59.73;100930.22;128532;1101;62576;-80
2021/06/02 02:57:36;;;;;;;3.40;1.77;;;;;;;13.26;59.60;100936.39;128600;1101;62134;-80
2021/06/02 03:00:09;;;;;;;3.20;1.60;;;;;;;13.25;60.69;100934.73;128588;1101;61600;-80
2021/06/02 03:03:16;;;;;;;3.40;1.67;;;;;;;13.21;60.56;100930.78;128561;1101;62325;-80
2021/06/02 03:06:04;;;;;;;4.03;2.00;;;;;;;13.18;60.73;100936.50;128400;1104;62188;-80
2021/06/02 03:08:48;;;;;;;6.60;1.67;;;;;;;13.14;61.04;100936.03;128533;1101;62191;-80
2021/06/02 03:11:29;;;;;;;5.13;2.23;;;;;;;13.12;61.23;100937.23;128563;1101;62756;-80
2021/06/02 03:14:13;;;;;;;3.87;2.17;;;;;;;13.09;61.62;100933.11;128609;1101;61987;-80
2021/06/02 03:16:43;;;;;;;2.57;1.53;;;;;;;13.06;62.06;100930.80;128409;1101;62350;-80
2021/06/02 03:19:17;;;;;;;3.10;1.80;;;;;;;13.05;62.40;100934.49;128355;1104;63464;-80
2021/06/02 03:22:05;;;;;;;2.60;1.65;;;;;;;13.02;63.04;100933.00;128551;1101;61990;-80
2021/06/02 03:24:52;;;;;;;2.83;1.80;;;;;;;13.02;63.11;100938.33;128396;1104;62036;-80
2021/06/02 03:27:28;;;;;;;4.17;1.73;;;;;;;13.00;63.31;100935.02;128409;1104;62038;-78
2021/06/02 03:30:07;;;;;;;3.33;1.83;;;;;;;12.99;63.69;100933.39;128579;1101;62047;-78
2021/06/02 03:32:43;;;;;;;3.37;1.63;;;;;;;13.01;63.81;100936.69;128582;1101;62002;-78
2021/06/02 03:35:29;;;;;;;3.30;1.73;;;;;;;13.04;64.25;100938.15;128589;1101;62160;-78
2021/06/02 03:38:29;;;;;;;4.23;2.00;;;;;;;13.05;64.53;100929.98;128387;1101;62321;-78
2021/06/02 03:41:05;;;;;;;2.83;1.97;;;;;;;13.10;64.58;100939.26;128629;1101;62001;-79
2021/06/02 03:43:38;;;;;;;3.57;1.70;;;;;;;13.12;64.42;100937.23;128585;1101;62115;-79
2021/06/02 03:46:29;;;;;;;3.60;1.93;;;;;;;13.14;64.84;100944.02;128351;1104;62896;-79
2021/06/02 03:49:22;;;;;;;2.53;1.47;;;;;;;13.16;65.03;100943.84;128254;1102;62001;-79
2021/06/02 03:52:07;;;;;;;3.10;1.73;;;;;;;13.18;65.17;100937.31;128365;1104;62088;-79
2021/06/02 03:54:42;;;;;;;4.07;2.30;;;;;;;13.19;65.38;100938.95;128587;1101;62414;-79
2021/06/02 03:57:31;;;;;;;3.23;2.10;;;;;;;13.19;65.91;100938.95;128638;1101;62400;-79
2021/06/02 04:00:14;;;;;;;2.70;1.43;;;;;;;13.19;65.61;100944.28;128586;1101;62897;-79
2021/06/02 04:03:00;;;;;;;2.43;1.63;;;;;;;13.23;65.66;100942.08;128401;1104;62084;-79
2021/06/02 04:05:41;;;;;;;4.00;1.90;;;;;;;13.27;65.55;100946.02;128346;1104;62019;-77
2021/06/02 04:08:32;;;;;;;2.80;1.90;;;;;;;13.32;65.54;100943.64;128558;1101;62157;-80
2021/06/02 04:11:18;;;;;;;5.60;1.90;;;;;;;13.40;65.53;100951.53;128460;1104;62054;-79
2021/06/02 04:13:50;;;;;;;4.07;1.80;;;;;;;13.49;65.71;100946.09;128538;1101;61966;-79
2021/06/02 04:16:22;;;;;;;5.47;1.90;;;;;;;13.58;65.40;100952.95;128526;1101;62414;-79
2021/06/02 04:18:51;;;;;;;5.23;2.37;;;;;;;13.65;65.64;100949.36;128352;1102;63050;-79
2021/06/02 04:21:22;;;;;;;4.27;2.50;;;;;;;13.72;65.42;100952.09;128598;1101;62300;-79
2021/06/02 04:23:51;;;;;;;5.30;2.97;;;;;;;13.81;65.36;100948.31;128354;1101;62033;-80
2021/06/02 04:26:20;;;;;;;3.67;2.20;;;;;;;13.90;65.39;100951.67;128386;1104;62134;-79
2021/06/02 04:28:49;;;;;;;4.00;2.57;;;;;;;13.98;65.36;100948.88;128373;1101;62015;-79
2021/06/02 04:31:16;;;;;;;4.87;2.33;;;;;;;14.04;65.29;100950.76;128404;1101;62214;-79
2021/06/02 04:33:44;;;;;;;3.17;1.60;;;;;;;14.10;64.90;100949.17;128553;1102;62097;-79
2021/06/02 04:36:13;;;;;;;4.53;1.80;;;;;;;14.15;64.89;100954.75;128403;1104;62071;-79
2021/06/02 04:38:40;;;;;;;5.23;1.97;;;;;;;14.20;64.75;100947.02;128411;1104;62351;-79
2021/06/02 04:41:09;;;;;;;4.23;2.70;;;;;;;14.30;64.95;100946.66;128356;1104;62021;-79
2021/06/02 04:43:39;;;;;;;4.13;1.67;;;;;;;14.38;64.72;100956.38;128344;1105;62120;-78
2021/06/02 04:46:08;;;;;;;4.27;2.23;;;;;;;14.47;64.27;100949.88;128547;1101;62285;-79
2021/06/02 04:48:36;;;;;;;3.57;1.93;;;;;;;14.55;64.39;100941.75;128408;1101;62000;-79
2021/06/02 04:51:23;;;;;;;3.83;1.50;;;;;;;14.63;64.28;100946.94;128406;1104;61995;-79
2021/06/02 04:54:04;;;;;;;3.00;1.30;;;;;;;14.70;64.54;100951.50;128570;1101;62754;-79
2021/06/02 04:56:50;;;;;;;5.00;2.07;;;;;;;14.72;63.94;100944.94;128378;1104;62531;-80
2021/06/02 05:00:03;;;;;;;4.07;1.90;;;;;;;14.73;63.55;100957.29;128584;1101;62007;-80
2021/06/02 05:02:43;;;;;;;6.57;2.20;;;;;;;14.70;63.43;100949.66;128585;1101;62301;-79
2021/06/02 05:05:30;;;;;;;4.10;1.80;;;;;;;14.67;63.67;100952.73;128596;1101;62139;-78
2021/06/02 05:08:12;;;;;;;3.30;1.93;;;;;;;14.64;63.47;100953.95;128341;1104;63594;-82
2021/06/02 05:11:10;;;;;;;2.77;1.70;;;;;;;14.62;63.78;100957.81;128328;1104;62148;-81
2021/06/02 05:14:05;;;;;;;3.50;1.50;;;;;;;14.58;63.91;100976.08;128366;1104;62024;-81
2021/06/02 05:16:41;;;;;;;3.00;1.77;;;;;;;14.53;63.88;100975.79;128529;1101;63241;-78
2021/06/02 05:19:23;;;;;;;2.53;1.60;;;;;;;14.47;63.76;100972.07;128552;1101;62092;-78
2021/06/02 05:22:07;;;;;;;7.53;3.60;;;;;;;14.44;63.94;100974.30;128571;1101;62013;-80
2021/06/02 05:24:37;;;;;;;3.85;1.98;;;;;;;14.43;64.45;100986.00;128396;1104;62470;-78
2021/06/02 05:27:22;;;;;;;3.37;1.90;;;;;;;14.44;64.22;100984.97;128522;1101;62653;-79
2021/06/02 05:30:07;;;;;;;3.23;1.53;;;;;;;14.46;63.93;100982.94;128593;1101;62269;-79
2021/06/02 05:33:00;;;;;;;4.87;1.77;;;;;;;14.46;64.76;100988.27;128545;1101;62006;-79
2021/06/02 05:35:56;;;;;;;2.30;1.47;;;;;;;14.46;64.81;100993.61;128590;1101;62127;-80
2021/06/02 05:38:35;;;;;;;8.67;1.97;;;;;;;14.48;64.66;100997.73;128619;1101;62475;-80
2021/06/02 05:41:10;;;;;;;5.57;1.90;;;;;;;14.51;64.25;100993.03;128535;1102;62051;-80
2021/06/02 05:44:24;;;;;;;4.00;1.37;;;;;;;14.53;64.45;100990.99;128567;1101;62027;-79
2021/06/02 05:47:31;;;;;;;7.77;2.10;;;;;;;14.65;64.51;100992.96;128536;1101;62119;-79
2021/06/02 05:50:20;;;;;;;5.83;2.13;;;;;;;14.73;64.42;100983.14;128547;1101;62155;-79
2021/06/02 05:52:49;;;;;;;2.97;1.90;;;;;;;14.84;63.96;100979.95;128536;1101;61693;-79
2021/06/02 05:55:55;;;;;;;3.83;2.43;;;;;;;14.86;63.59;100988.59;128420;1104;61930;-79
2021/06/02 05:58:40;;;;;;;2.80;1.50;;;;;;;14.91;64.47;100985.33;128545;1101;61763;-79
2021/06/02 06:01:22;;;;;;;5.20;2.07;;;;;;;15.07;63.28;100983.17;128501;1101;62075;-79
2021/06/02 06:04:08;;;;;;;2.27;1.70;;;;;;;15.22;63.17;100983.03;128492;1101;62063;-80
2021/06/02 06:07:00;;;;;;;5.37;2.10;;;;;;;15.40;62.36;100979.81;128461;1102;62157;-80
2021/06/02 06:10:03;;;;;;;4.57;1.37;;;;;;;15.56;62.03;100986.67;128369;1104;62719;-79
2021/06/02 06:13:07;;;;;;;7.17;2.03;;;;;;;15.76;61.45;100988.61;128038;1101;61445;-78
2021/06/02 06:15:56;;;;;;;3.77;1.33;;;;;;;15.95;61.03;100987.00;128392;1102;62854;-80
2021/06/02 06:18:23;;;;;;;5.40;1.70;;;;;;;16.02;60.14;100982.47;128602;1101;62221;-79
2021/06/02 06:21:10;;;;;;;2.27;1.17;;;;;;;16.08;59.20;100982.48;128731;1101;61851;-80
2021/06/02 06:23:43;;;;;;;6.50;2.20;;;;;;;16.12;59.11;100974.88;128472;1101;61897;-80
2021/06/02 06:26:18;;;;;;;2.97;1.40;;;;;;;16.21;58.86;100978.98;128718;1101;62138;-80
2021/06/02 06:29:14;;;;;;;4.67;1.67;;;;;;;16.28;58.23;100987.86;128442;1104;64004;-80
2021/06/02 06:31:44;;;;;;;3.70;1.60;;;;;;;16.38;58.30;100984.76;128487;1101;62127;-81
2021/06/02 06:34:21;;;;;;;4.50;1.70;;;;;;;16.46;57.53;100999.80;128497;1102;62047;-83
2021/06/02 06:36:52;;;;;;;5.80;1.30;;;;;;;16.50;57.31;100990.33;128491;1101;62046;-81
2021/06/02 06:39:43;;;;;;;3.47;1.70;;;;;;;16.58;56.94;100987.45;128429;1103;61963;-82
2021/06/02 06:42:15;;;;;;;3.63;1.10;;;;;;;16.59;56.85;100991.75;128454;1104;63120;-82
2021/06/02 06:44:45;;;;;;;2.17;1.20;;;;;;;16.53;56.27;100984.55;128748;1101;61989;-82
2021/06/02 06:47:14;;;;;;;3.70;1.13;;;;;;;16.52;56.31;100982.91;128484;1102;61968;-82
2021/06/02 06:49:46;;;;;;;3.50;1.70;;;;;;;16.59;56.74;100988.27;128479;1101;62098;-83
2021/06/02 06:52:15;;;;;;;5.10;1.40;;;;;;;16.63;56.16;100984.95;128785;1101;62823;-83
2021/06/02 06:54:43;;;;;;;4.30;1.40;;;;;;;16.69;56.26;100988.66;128450;1104;63239;-82
2021/06/02 06:57:11;;;;;;;3.90;1.30;;;;;;;16.65;56.54;100998.15;128752;1101;62064;-82
2021/06/02 06:59:39;;;;;;;3.90;1.40;;;;;;;16.67;56.79;100990.73;128776;1101;62354;-83
2021/06/02 07:02:07;;;;;;;3.17;1.03;;;;;;;16.79;56.62;100988.22;128443;1101;62215;-82
2021/06/02 07:04:34;;;;;;;2.53;1.20;;;;;;;16.93;56.23;100989.88;128752;1101;61922;-84
2021/06/02 07:07:02;;;;;;;3.47;1.53;;;;;;;16.99;56.13;100988.23;128446;1104;62059;-83
2021/06/02 07:09:29;;;;;;;3.90;1.47;;;;;;;17.10;56.52;100993.75;128428;1104;62073;-83
2021/06/02 07:11:57;;;;;;;1.97;1.17;;;;;;;17.22;55.61;100990.44;128422;1104;62030;-83
2021/06/02 07:14:29;;;;;;;4.40;1.33;;;;;;;17.33;55.96;100984.41;128492;1102;61944;-83
2021/06/02 07:17:04;;;;;;;2.27;1.17;;;;;;;17.44;55.64;100980.23;128774;1101;62224;-84
2021/06/02 07:19:38;;;;;;;2.70;1.30;;;;;;;17.53;54.56;100979.78;128497;1101;61987;-84
2021/06/02 07:22:05;;;;;;;7.13;4.88;;;;;;;17.63;55.26;100986.53;128656;1101;62313;-81
2021/06/02 07:24:36;;;;;;;2.37;1.17;;;;;;;17.74;54.61;100991.22;128664;1101;62221;-81
2021/06/02 07:27:04;;;;;;;3.10;1.50;;;;;;;17.77;54.22;100995.34;128662;1101;61999;-80
2021/06/02 07:29:31;;;;;;;4.47;1.33;;;;;;;17.80;54.32;100995.72;128486;1101;61963;-80
2021/06/02 07:31:58;;;;;;;6.43;2.43;;;;;;;17.88;54.06;100983.95;128436;1101;62866;-79
2021/06/02 07:34:25;;;;;;;4.40;1.43;;;;;;;17.99;53.91;100987.80;128716;1101;62151;-79
2021/06/02 07:36:52;;;;;;;2.50;1.30;;;;;;;18.10;54.00;100979.05;128411;1104;62178;-80
2021/06/02 07:39:19;;;;;;;3.07;1.57;;;;;;;18.22;53.45;100989.91;128394;1104;62022;-80
2021/06/02 07:41:46;;;;;;;3.47;0.97;;;;;;;18.29;53.87;100988.80;128738;1101;61810;-80
2021/06/02 07:44:14;;;;;;;3.00;1.63;;;;;;;18.41;53.33;100991.61;128472;1104;62078;-80
2021/06/02 07:46:41;;;;;;;6.50;2.23;;;;;;;18.47;53.00;100988.05;128442;1102;62072;-79
2021/06/02 07:49:08;;;;;;;8.87;7.10;;;;;;;18.52;52.84;100984.70;128652;1101;62082;-79
2021/06/02 07:51:36;;;;;;;4.70;1.30;;;;;;;18.58;52.62;100989.19;128759;1101;62098;-80
2021/06/02 07:54:05;;;;;;;3.97;1.73;;;;;;;18.67;52.73;100982.48;128372;1104;62290;-79
2021/06/02 07:56:33;;;;;;;2.50;1.40;;;;;;;18.75;52.78;100990.27;128495;1101;62764;-79
2021/06/02 07:59:00;;;;;;;6.23;1.53;;;;;;;18.87;52.07;100984.17;128412;1102;62023;-79
2021/06/02 08:01:28;;;;;;;3.53;1.63;;;;;;;18.86;52.51;100994.11;128765;1101;62074;-79
2021/06/02 08:03:55;;;;;;;2.23;1.00;;;;;;;18.80;52.45;100994.19;128453;1101;62011;-79
2021/06/02 08:06:22;;;;;;;3.47;1.17;;;;;;;18.80;52.26;100996.88;128472;1104;62210;-79
2021/06/02 08:08:49;;;;;;;4.63;1.60;;;;;;;18.88;52.93;100992.02;128752;1101;63064;-81
2021/06/02 08:11:16;;;;;;;3.03;1.40;;;;;;;19.03;52.65;100999.73;128666;1101;62278;-82
2021/06/02 08:13:43;;;;;;;4.73;2.00;;;;;;;19.16;52.57;100993.38;128437;1104;61972;-82
2021/06/02 08:16:10;;;;;;;3.63;1.30;;;;;;;19.33;52.20;101002.48;128427;1104;62057;-82
2021/06/02 08:18:37;;;;;;;9.73;2.60;;;;;;;19.47;52.34;100992.39;128442;1102;61998;-79
2021/06/02 08:21:04;;;;;;;6.17;2.73;;;;;;;19.47;52.05;100994.27;128706;1101;62877;-79
2021/06/02 08:23:31;;;;;;;4.67;2.23;;;;;;;19.58;52.08;100989.98;128740;1101;62079;-79
2021/06/02 08:25:58;;;;;;;5.40;2.43;;;;;;;19.71;52.29;100992.52;128500;1101;62011;-80
2021/06/02 08:28:26;;;;;;;5.13;1.63;;;;;;;19.85;51.94;100983.21;128654;1101;61959;-81
2021/06/02 08:30:53;;;;;;;2.83;2.00;;;;;;;19.85;51.66;100985.06;128765;1101;62004;-83
2021/06/02 08:33:24;;;;;;;4.27;1.97;;;;;;;19.91;52.17;100990.38;128487;1101;62393;-83
2021/06/02 08:35:51;;;;;;;4.73;2.40;;;;;;;19.91;52.17;100990.38;128655;1101;61982;-84
2021/06/02 08:38:18;;;;;;;6.10;2.60;;;;;;;19.96;51.85;100998.57;128689;1101;62034;-84
2021/06/02 08:40:46;;;;;;;5.10;1.90;;;;;;;20.04;51.88;100994.74;128712;1101;62046;-83
2021/06/02 08:43:13;;;;;;;3.57;2.27;;;;;;;20.19;52.25;100998.84;128443;1104;62482;-84
2021/06/02 08:45:40;;;;;;;5.70;1.80;;;;;;;20.32;51.40;101002.16;128734;1101;62878;-84
2021/06/02 08:48:08;;;;;;;2.87;1.60;;;;;;;20.41;51.11;101004.52;128727;1101;62015;-84
2021/06/02 08:50:35;;;;;;;4.97;1.90;;;;;;;20.48;51.12;101005.22;128734;1101;61891;-84
2021/06/02 08:53:03;;;;;;;5.60;2.40;;;;;;;20.58;51.09;101002.80;128778;1101;61992;-81
2021/06/02 08:55:31;;;;;;;4.40;2.10;;;;;;;20.70;50.28;101006.33;128793;1101;62051;-82
2021/06/02 08:57:58;;;;;;;4.10;1.87;;;;;;;20.78;50.15;101005.13;128480;1104;62927;-83
2021/06/02 09:00:27;;;;;;;7.47;2.30;;;;;;;20.85;50.58;100999.65;128760;1101;62052;-84
2021/06/02 09:02:55;;;;;;;3.80;2.10;;;;;;;20.96;49.65;100996.11;128460;1101;62065;-82
2021/06/02 09:05:26;;;;;;;3.23;1.83;;;;;;;21.12;49.92;100989.99;128643;1101;62015;-84
2021/06/02 09:07:54;;;;;;;5.57;2.00;;;;;;;21.28;49.50;100987.60;128536;1102;61959;-82
2021/06/02 09:10:25;;;;;;;3.93;1.50;;;;;;;21.40;49.51;100991.09;128784;1101;63068;-83
2021/06/02 09:12:58;;;;;;;2.73;1.50;;;;;;;21.45;49.13;100993.91;128659;1101;61948;-83
2021/06/02 09:15:33;;;;;;;3.43;1.97;;;;;;;21.49;49.69;100992.38;128803;1101;61976;-81
2021/06/02 09:18:06;;;;;;;5.00;2.73;;;;;;;21.55;48.61;100986.02;128393;1104;62037;-83
2021/06/02 09:20:46;;;;;;;5.30;3.30;;;;;;;21.65;48.78;100993.47;128525;1101;61953;-84
2021/06/02 09:23:31;;;;;;;4.23;2.00;;;;;;;21.77;49.57;100985.33;128764;1101;62740;-83
2021/06/02 09:26:13;;;;;;;5.73;2.03;;;;;;;21.96;49.90;100986.75;128478;1101;62160;-83
2021/06/02 09:28:59;;;;;;;16.50;8.17;;;;;;;22.18;49.29;100986.02;128693;1101;62038;-83
2021/06/02 09:31:37;;;;;;;5.93;2.70;;;;;;;22.32;49.23;100987.38;128748;1101;61963;-85
2021/06/02 09:34:13;;;;;;;8.70;3.33;;;;;;;22.41;47.98;100986.97;128478;1102;61974;-81
2021/06/02 09:36:42;;;;;;;7.00;3.17;;;;;;;22.45;48.41;100980.81;128748;1101;62056;-83
2021/06/02 09:39:20;;;;;;;4.37;2.40;;;;;;;22.57;48.03;100983.44;128733;1101;62082;-80
2021/06/02 09:41:53;;;;;;;4.83;2.53;;;;;;;22.74;48.04;100983.41;128506;1101;62138;-79
2021/06/02 09:44:26;;;;;;;6.13;2.80;;;;;;;22.90;47.91;100981.72;128478;1104;62140;-78
2021/06/02 09:47:05;;;;;;;4.20;1.87;;;;;;;23.03;47.56;100985.97;128459;1101;61931;-79
2021/06/02 09:49:48;;;;;;;3.47;1.80;;;;;;;23.18;48.03;100983.45;128477;1101;62932;-77
2021/06/02 09:52:16;;;;;;;3.57;2.27;;;;;;;23.33;47.57;100974.70;128435;1104;62014;-80
2021/06/02 09:54:43;;;;;;;4.10;2.10;;;;;;;23.40;47.96;100976.15;128453;1104;62201;-75
2021/06/02 09:57:12;;;;;;;8.10;2.77;;;;;;;23.52;47.37;100977.89;128437;1102;61935;-76
2021/06/02 10:00:01;;;;;;;9.77;3.23;;;;;;;23.51;46.17;100977.08;128680;1101;62029;-77
2021/06/02 10:02:28;;;;;;;5.20;2.80;;;;;;;23.41;44.32;100979.67;128765;1101;62556;-76
2021/06/02 10:05:22;;;;;;;4.67;3.33;;;;;;;23.25;45.20;100977.84;128419;1104;61960;-77
2021/06/02 10:07:49;;;;;;;5.23;2.80;;;;;;;23.19;45.50;100985.11;128425;1104;62078;-76
2021/06/02 10:10:20;;;;;;;3.97;2.63;;;;;;;23.23;46.53;100988.95;128794;1101;61879;-79
2021/06/02 10:13:16;;;;;;;4.40;3.00;;;;;;;23.37;46.27;100968.52;128506;1101;61995;-78
2021/06/02 10:15:53;;;;;;;7.73;3.00;;;;;;;23.37;44.53;100970.41;128632;1101;61996;-77
2021/06/02 10:18:27;;;;;;;4.65;2.75;;;;;;;23.42;45.28;100973.20;128508;1101;62062;-79
2021/06/02 10:21:05;;;;;;;3.40;2.67;;;;;;;23.51;45.55;100971.66;128521;1101;61748;-78
2021/06/02 10:23:40;;;;;;;4.80;3.17;;;;;;;23.49;43.79;100971.09;128795;1101;61950;-75
2021/06/02 10:26:08;;;;;;;3.80;2.33;;;;;;;23.55;44.46;100980.91;128740;1101;61972;-78
2021/06/02 10:28:36;;;;;;;3.87;2.30;;;;;;;23.64;44.33;100978.56;128481;1101;64675;-79
2021/06/02 10:31:06;;;;;;;3.30;2.33;;;;;;;23.56;44.22;100971.70;128518;1102;61458;-78
2021/06/02 10:33:34;;;;;;;4.37;2.40;;;;;;;23.62;45.02;100978.00;128665;1101;62086;-77
2021/06/02 10:36:05;;;;;;;4.30;2.70;;;;;;;23.68;44.46;100981.59;128723;1101;62005;-77
2021/06/02 10:38:47;;;;;;;6.93;2.80;;;;;;;23.79;44.86;100984.16;128437;1102;61990;-77
2021/06/02 10:41:32;;;;;;;5.57;2.90;;;;;;;23.89;44.23;100974.52;128770;1101;62440;-77
2021/06/02 10:44:07;;;;;;;5.23;3.30;;;;;;;24.01;45.00;100985.98;128657;1101;62113;-76
2021/06/02 10:46:37;;;;;;;5.30;2.90;;;;;;;24.17;44.04;100984.23;128502;1101;62255;-79
2021/06/02 10:49:04;;;;;;;3.50;1.90;;;;;;;24.20;43.30;100983.70;128460;1101;61938;-79
2021/06/02 10:51:31;;;;;;;3.47;2.37;;;;;;;24.22;43.83;100974.22;128728;1101;61960;-80
2021/06/02 10:54:11;;;;;;;5.03;2.60;;;;;;;24.28;45.09;100980.52;128694;1101;61982;-79
2021/06/02 10:57:00;;;;;;;4.63;2.20;;;;;;;24.46;43.70;100987.44;128552;1102;62026;-77
2021/06/02 10:59:32;;;;;;;5.33;2.27;;;;;;;24.60;44.07;100982.39;128727;1101;62031;-76
2021/06/02 11:02:11;;;;;;;6.73;2.40;;;;;;;24.60;43.66;100979.68;128414;1104;62001;-76
2021/06/02 11:04:56;;;;;;;3.00;1.87;;;;;;;24.67;43.11;100988.39;128761;1101;62391;-76
2021/06/02 11:07:30;;;;;;;3.63;1.87;;;;;;;24.71;42.80;100985.98;128662;1101;62027;-76
2021/06/02 11:10:00;;;;;;;4.05;2.23;;;;;;;24.74;42.31;100980.86;128657;1101;61926;-77
2021/06/02 11:12:46;;;;;;;3.67;2.10;;;;;;;24.64;41.69;100977.27;128457;1104;62297;-77
2021/06/02 11:15:31;;;;;;;3.47;1.83;;;;;;;24.69;42.92;100977.29;128706;1101;62006;-77
2021/06/02 11:18:10;;;;;;;4.43;2.53;;;;;;;24.81;42.76;100976.00;128497;1101;62025;-77
2021/06/02 11:20:46;;;;;;;2.50;1.53;;;;;;;24.93;41.80;100969.56;128404;1104;62401;-77
2021/06/02 11:23:29;;;;;;;3.87;2.07;;;;;;;25.03;43.39;100972.30;128396;1104;62016;-77
2021/06/02 11:26:25;;;;;;;3.30;1.80;;;;;;;25.14;42.32;100979.42;128726;1101;61509;-77
2021/06/02 11:28:53;;;;;;;5.00;2.63;;;;;;;25.20;42.36;100975.69;128450;1104;61948;-77
2021/06/02 11:31:22;;;;;;;4.77;2.30;;;;;;;25.30;41.49;100968.64;128450;1104;62379;-77
2021/06/02 11:33:50;;;;;;;4.37;2.23;;;;;;;25.33;40.54;100976.24;128705;1101;62024;-77
2021/06/02 11:36:19;;;;;;;4.77;2.37;;;;;;;25.49;42.10;100971.69;128435;1104;62987;-77
2021/06/02 11:38:46;;;;;;;3.73;2.33;;;;;;;25.61;41.09;100970.36;128643;1101;62029;-77
2021/06/02 11:41:14;;;;;;;3.73;2.10;;;;;;;25.59;41.18;100969.80;128739;1101;61373;-77
2021/06/02 11:43:59;;;;;;;6.55;2.33;;;;;;;25.74;41.66;100971.73;128685;1101;62395;-77
2021/06/02 11:46:50;;;;;;;4.23;2.07;;;;;;;25.92;41.23;100973.13;128695;1101;62008;-77
2021/06/02 11:49:31;;;;;;;6.13;2.07;;;;;;;26.10;41.14;100981.85;128468;1102;61523;-77
2021/06/02 11:52:18;;;;;;;6.50;2.20;;;;;;;26.22;40.35;100976.93;128435;1102;62855;-77
2021/06/02 11:54:49;;;;;;;4.83;2.00;;;;;;;26.44;40.87;100982.09;128436;1102;62598;-76
2021/06/02 11:57:28;;;;;;;4.17;2.23;;;;;;;26.66;41.00;100970.11;128439;1104;61928;-77
2021/06/02 11:59:59;;;;;;;4.23;2.47;;;;;;;26.79;39.26;100981.21;128427;1104;61983;-75